createdAt,value
2023-08-09T00:00:57.788Z,13.76
2023-08-09T00:03:24.305Z,13.89
2023-08-09T00:05:50.682Z,13.73
2023-08-09T00:08:17.082Z,13.67
2023-08-09T00:10:43.494Z,13.66
2023-08-09T00:13:09.906Z,13.69
2023-08-09T00:15:36.278Z,13.77
2023-08-09T00:18:02.866Z,13.63
2023-08-09T00:20:29.251Z,13.60
2023-08-09T00:22:55.660Z,13.59
2023-08-09T00:25:22.033Z,13.46
2023-08-09T00:27:48.397Z,13.50
2023-08-09T00:30:14.843Z,13.63
2023-08-09T00:32:42.136Z,13.69
2023-08-09T00:35:09.261Z,13.65
2023-08-09T00:37:35.989Z,13.72
2023-08-09T00:40:03.840Z,13.74
2023-08-09T00:42:30.185Z,13.60
2023-08-09T00:44:56.579Z,13.55
2023-08-09T00:47:22.967Z,13.40
2023-08-09T00:49:49.682Z,13.45
2023-08-09T00:52:16.868Z,13.38
2023-08-09T00:54:43.661Z,13.30
2023-08-09T00:57:10.334Z,13.49
2023-08-09T00:59:36.771Z,13.39
2023-08-09T01:02:03.218Z,13.22
2023-08-09T01:04:29.733Z,13.09
2023-08-09T01:07:21.306Z,12.85
2023-08-09T01:09:54.982Z,12.87
2023-08-09T01:12:29.389Z,12.82
2023-08-09T01:14:59.240Z,12.74
2023-08-09T01:17:28.808Z,12.66
2023-08-09T01:19:57.438Z,12.46
2023-08-09T01:22:35.699Z,12.42
2023-08-09T01:25:04.586Z,12.44
2023-08-09T01:27:32.042Z,12.58
2023-08-09T01:29:58.650Z,12.49
2023-08-09T01:32:26.237Z,12.41
2023-08-09T01:34:53.513Z,12.50
2023-08-09T01:37:35.385Z,12.28
2023-08-09T01:40:05.707Z,12.33
2023-08-09T01:42:32.256Z,12.40
2023-08-09T01:44:59.125Z,12.48
2023-08-09T01:47:25.610Z,12.35
2023-08-09T01:49:51.970Z,12.20
2023-08-09T01:52:18.546Z,12.19
2023-08-09T01:54:44.912Z,12.09
2023-08-09T01:57:11.361Z,12.04
2023-08-09T01:59:37.872Z,11.95
2023-08-09T02:02:04.665Z,11.88
2023-08-09T02:04:31.454Z,11.86
2023-08-09T02:06:57.816Z,11.70
2023-08-09T02:09:24.255Z,11.62
2023-08-09T02:11:50.620Z,11.61
2023-08-09T02:14:16.990Z,11.70
2023-08-09T02:16:43.408Z,11.67
2023-08-09T02:19:09.781Z,11.63
2023-08-09T02:21:39.332Z,11.79
2023-08-09T02:24:06.168Z,11.64
2023-08-09T02:26:32.970Z,11.54
2023-08-09T02:28:59.328Z,11.43
2023-08-09T02:31:25.683Z,11.43
2023-08-09T02:33:52.053Z,11.41
2023-08-09T02:36:18.412Z,11.49
2023-08-09T02:38:44.798Z,11.56
2023-08-09T02:41:11.169Z,11.76
2023-08-09T02:43:37.565Z,11.86
2023-08-09T02:46:04.100Z,12.12
2023-08-09T02:48:30.957Z,12.18
2023-08-09T02:50:57.334Z,12.07
2023-08-09T02:53:37.879Z,12.06
2023-08-09T02:56:04.874Z,12.15
2023-08-09T02:58:31.308Z,12.16
2023-08-09T03:00:57.686Z,12.08
2023-08-09T03:03:24.134Z,12.07
2023-08-09T03:05:50.592Z,12.05
2023-08-09T03:08:16.948Z,11.85
2023-08-09T03:10:43.374Z,11.92
2023-08-09T03:13:09.715Z,11.81
2023-08-09T03:15:36.113Z,11.87
2023-08-09T03:18:02.556Z,11.79
2023-08-09T03:20:29.009Z,11.73
2023-08-09T03:22:55.398Z,11.72
2023-08-09T03:25:21.856Z,11.41
2023-08-09T03:27:48.233Z,11.38
2023-08-09T03:30:14.610Z,11.14
2023-08-09T03:32:41.160Z,11.15
2023-08-09T03:35:08.107Z,11.13
2023-08-09T03:37:35.222Z,11.15
2023-08-09T03:40:01.649Z,11.10
2023-08-09T03:42:28.061Z,11.07
2023-08-09T03:44:54.451Z,11.14
2023-08-09T03:47:20.907Z,11.09
2023-08-09T03:49:47.362Z,11.06
2023-08-09T03:52:13.767Z,11.07
2023-08-09T03:54:40.145Z,10.98
2023-08-09T03:57:06.515Z,10.94
2023-08-09T03:59:32.905Z,10.83
2023-08-09T04:01:59.288Z,11.01
2023-08-09T04:04:25.666Z,10.93
2023-08-09T04:06:52.081Z,10.89
2023-08-09T04:09:18.421Z,10.88
2023-08-09T04:11:44.799Z,10.85
2023-08-09T04:14:11.162Z,10.85
2023-08-09T04:16:37.542Z,10.85
2023-08-09T04:19:03.966Z,10.89
2023-08-09T04:21:30.393Z,10.90
2023-08-09T04:23:56.732Z,10.86
2023-08-09T04:26:23.114Z,10.79
2023-08-09T04:28:49.487Z,10.78
2023-08-09T04:31:15.924Z,10.76
2023-08-09T04:33:42.301Z,10.76
2023-08-09T04:36:08.671Z,10.68
2023-08-09T04:38:35.034Z,10.67
2023-08-09T04:41:01.422Z,10.72
2023-08-09T04:43:27.810Z,10.77
2023-08-09T04:45:54.206Z,10.81
2023-08-09T04:48:20.612Z,10.93
2023-08-09T04:50:47.028Z,11.13
2023-08-09T04:53:13.383Z,11.31
2023-08-09T04:55:39.819Z,11.54
2023-08-09T04:58:06.215Z,11.77
2023-08-09T05:00:32.606Z,11.86
2023-08-09T05:02:58.988Z,11.81
2023-08-09T05:05:25.423Z,11.84
2023-08-09T05:07:51.792Z,11.90
2023-08-09T05:10:18.434Z,11.93
2023-08-09T05:12:44.830Z,12.05
2023-08-09T05:15:12.026Z,12.10
2023-08-09T05:17:38.411Z,12.15
2023-08-09T05:20:05.344Z,12.16
2023-08-09T05:22:31.924Z,12.15
2023-08-09T05:24:58.261Z,12.27
2023-08-09T05:27:24.634Z,12.24
2023-08-09T05:29:50.985Z,12.32
2023-08-09T05:32:17.432Z,12.24
2023-08-09T05:34:43.866Z,12.29
2023-08-09T05:37:10.229Z,12.46
2023-08-09T05:39:36.673Z,12.58
2023-08-09T05:42:03.101Z,12.80
2023-08-09T05:44:29.953Z,12.95
2023-08-09T05:46:56.500Z,13.09
2023-08-09T05:49:22.893Z,13.20
2023-08-09T05:51:49.337Z,13.43
2023-08-09T05:54:15.713Z,13.71
2023-08-09T05:56:42.123Z,13.82
2023-08-09T05:59:08.522Z,13.99
2023-08-09T06:01:34.879Z,14.14
2023-08-09T06:04:01.276Z,14.12
2023-08-09T06:06:27.705Z,14.27
2023-08-09T06:08:54.105Z,14.38
2023-08-09T06:11:20.478Z,14.55
2023-08-09T06:13:47.134Z,14.81
2023-08-09T06:16:13.662Z,14.96
2023-08-09T06:18:40.053Z,15.02
2023-08-09T06:21:06.522Z,14.97
2023-08-09T06:23:32.950Z,14.91
2023-08-09T06:25:59.458Z,14.88
2023-08-09T06:28:25.890Z,14.92
2023-08-09T06:30:52.353Z,14.94
2023-08-09T06:33:18.858Z,15.06
2023-08-09T06:35:45.205Z,15.04
2023-08-09T06:38:15.849Z,15.24
2023-08-09T06:40:42.875Z,15.31
2023-08-09T06:43:09.256Z,15.45
2023-08-09T06:45:35.688Z,15.38
2023-08-09T06:48:02.122Z,15.47
2023-08-09T06:50:28.645Z,15.23
2023-08-09T06:52:55.061Z,15.32
2023-08-09T06:55:21.467Z,15.26
2023-08-09T06:57:47.871Z,15.24
2023-08-09T07:00:14.694Z,15.49
2023-08-09T07:02:41.150Z,15.58
2023-08-09T07:05:10.690Z,15.63
2023-08-09T07:07:37.456Z,15.59
2023-08-09T07:10:04.038Z,15.80
2023-08-09T07:12:30.416Z,15.85
2023-08-09T07:14:56.756Z,15.99
2023-08-09T07:17:23.147Z,15.66
2023-08-09T07:19:49.525Z,15.98
2023-08-09T07:22:15.931Z,15.94
2023-08-09T07:24:42.291Z,16.20
2023-08-09T07:27:08.707Z,15.93
2023-08-09T07:29:35.075Z,16.28
2023-08-09T07:32:01.814Z,16.15
2023-08-09T07:34:28.548Z,16.44
2023-08-09T07:36:54.961Z,16.46
2023-08-09T07:39:21.462Z,16.53
2023-08-09T07:41:47.822Z,16.26
2023-08-09T07:44:14.193Z,16.56
2023-08-09T07:46:40.567Z,16.57
2023-08-09T07:49:07.014Z,16.89
2023-08-09T07:51:33.438Z,16.66
2023-08-09T07:53:59.813Z,16.60
2023-08-09T07:56:26.228Z,16.69
2023-08-09T07:58:52.592Z,16.72
2023-08-09T08:01:18.985Z,16.92
2023-08-09T08:03:45.428Z,17.06
2023-08-09T08:06:11.841Z,16.78
2023-08-09T08:08:38.246Z,16.67
2023-08-09T08:11:04.645Z,16.69
2023-08-09T08:13:31.111Z,16.99
2023-08-09T08:15:57.547Z,17.06
2023-08-09T08:18:24.057Z,16.89
2023-08-09T08:20:50.670Z,16.77
2023-08-09T08:23:17.024Z,16.89
2023-08-09T08:25:43.446Z,17.16
2023-08-09T08:28:09.822Z,17.44
2023-08-09T08:30:36.275Z,17.43
2023-08-09T08:33:02.696Z,17.48
2023-08-09T08:35:29.151Z,17.58
2023-08-09T08:37:55.526Z,17.42
2023-08-09T08:40:23.696Z,17.34
2023-08-09T08:42:51.337Z,17.37
2023-08-09T08:45:18.929Z,17.77
2023-08-09T08:47:46.767Z,17.72
2023-08-09T08:50:15.570Z,18.12
2023-08-09T08:52:44.508Z,18.90
2023-08-09T08:55:12.658Z,19.38
2023-08-09T08:57:40.818Z,19.45
2023-08-09T09:00:12.933Z,18.86
2023-08-09T09:02:44.589Z,18.83
2023-08-09T09:05:12.588Z,19.06
2023-08-09T09:07:39.931Z,18.89
2023-08-09T09:10:08.165Z,18.80
2023-08-09T09:12:34.630Z,18.89
2023-08-09T09:15:01.041Z,18.90
2023-08-09T09:17:27.644Z,18.70
2023-08-09T09:19:54.100Z,18.87
2023-08-09T09:22:28.690Z,18.84
2023-08-09T09:24:59.732Z,18.37
2023-08-09T09:27:30.375Z,18.95
2023-08-09T09:30:00.919Z,19.17
2023-08-09T09:32:27.370Z,19.53
2023-08-09T09:34:53.759Z,19.29
2023-08-09T09:37:24.452Z,18.64
2023-08-09T09:39:50.906Z,19.09
2023-08-09T09:42:17.303Z,19.64
2023-08-09T09:44:44.913Z,19.60
2023-08-09T09:47:11.332Z,19.02
2023-08-09T09:49:37.954Z,19.23
2023-08-09T09:52:05.504Z,19.71
2023-08-09T09:54:32.894Z,19.80
2023-08-09T09:56:59.251Z,19.83
2023-08-09T09:59:25.863Z,19.80
2023-08-09T10:01:53.389Z,19.65
2023-08-09T10:04:20.673Z,19.78
2023-08-09T10:06:49.186Z,19.40
2023-08-09T10:09:17.487Z,19.20
2023-08-09T10:11:44.954Z,19.10
2023-08-09T10:14:12.428Z,19.30
2023-08-09T10:16:39.632Z,19.58
2023-08-09T10:19:15.258Z,19.96
2023-08-09T10:21:41.868Z,20.69
2023-08-09T10:24:13.464Z,20.41
2023-08-09T10:26:42.155Z,20.62
2023-08-09T10:29:11.115Z,20.55
2023-08-09T10:32:09.740Z,21.04
2023-08-09T10:34:42.658Z,20.23
2023-08-09T10:37:24.609Z,19.48
2023-08-09T10:40:14.345Z,19.70
2023-08-09T10:42:40.850Z,19.79
2023-08-09T10:45:07.809Z,20.06
2023-08-09T10:47:34.208Z,20.50
2023-08-09T10:50:01.219Z,20.39
2023-08-09T10:52:42.380Z,20.63
2023-08-09T10:55:20.685Z,20.30
2023-08-09T10:57:48.841Z,19.93
2023-08-09T11:00:16.371Z,20.22
2023-08-09T11:02:50.250Z,20.86
2023-08-09T11:05:17.722Z,20.62
2023-08-09T11:07:53.034Z,20.54
2023-08-09T11:10:35.134Z,21.24
2023-08-09T11:13:09.222Z,21.58
2023-08-09T11:15:36.519Z,21.99
2023-08-09T11:18:03.405Z,22.29
2023-08-09T11:20:30.173Z,21.79
2023-08-09T11:22:58.829Z,21.92
2023-08-09T11:25:27.142Z,21.48
2023-08-09T11:27:54.992Z,21.70
2023-08-09T11:30:21.867Z,22.32
2023-08-09T11:33:05.352Z,22.07
2023-08-09T11:35:34.154Z,22.22
2023-08-09T11:38:00.786Z,22.71
2023-08-09T11:40:27.772Z,22.83
2023-08-09T11:42:58.123Z,22.73
2023-08-09T11:45:24.881Z,22.29
2023-08-09T11:47:53.835Z,21.69
2023-08-09T11:50:24.388Z,22.07
2023-08-09T11:52:55.535Z,21.69
2023-08-09T11:55:24.737Z,21.36
2023-08-09T11:57:51.503Z,21.44
2023-08-09T12:00:18.089Z,21.31
2023-08-09T12:02:45.195Z,21.70
2023-08-09T12:05:14.973Z,21.22
2023-08-09T12:07:42.367Z,20.28
2023-08-09T12:10:13.145Z,19.89
2023-08-09T12:12:40.548Z,20.43
2023-08-09T12:15:09.887Z,21.19
2023-08-09T12:17:36.502Z,21.50
2023-08-09T12:20:05.896Z,22.16
2023-08-09T12:22:32.423Z,22.50
2023-08-09T12:24:59.698Z,23.29
2023-08-09T12:27:26.805Z,23.63
2023-08-09T12:29:53.550Z,23.46
2023-08-09T12:32:20.738Z,23.08
2023-08-09T12:34:47.423Z,23.86
2023-08-09T12:37:14.991Z,24.07
2023-08-09T12:39:41.371Z,24.26
2023-08-09T12:42:07.712Z,24.35
2023-08-09T12:44:34.077Z,24.40
2023-08-09T12:47:00.729Z,24.01
2023-08-09T12:49:27.274Z,24.01
2023-08-09T12:51:53.645Z,23.76
2023-08-09T12:54:20.116Z,23.39
2023-08-09T12:56:46.563Z,22.10
2023-08-09T12:59:12.951Z,21.99
2023-08-09T13:01:39.394Z,22.04
2023-08-09T13:04:06.193Z,22.60
2023-08-09T13:06:32.710Z,22.30
2023-08-09T13:09:00.855Z,22.08
2023-08-09T13:11:27.405Z,22.10
2023-08-09T13:13:55.109Z,22.47
2023-08-09T13:16:21.564Z,22.68
2023-08-09T13:18:47.979Z,21.63
2023-08-09T13:21:17.181Z,20.61
2023-08-09T13:23:44.555Z,20.30
2023-08-09T13:26:11.128Z,20.76
2023-08-09T13:28:37.516Z,21.56
2023-08-09T13:31:03.981Z,22.43
2023-08-09T13:33:30.486Z,22.95
2023-08-09T13:35:56.904Z,23.49
2023-08-09T13:38:28.962Z,23.81
2023-08-09T13:40:57.243Z,23.95
2023-08-09T13:43:24.733Z,24.19
2023-08-09T13:45:51.167Z,23.39
2023-08-09T13:48:17.675Z,22.88
2023-08-09T13:50:47.034Z,22.74
2023-08-09T13:53:14.112Z,22.43
2023-08-09T13:55:42.371Z,22.11
2023-08-09T13:58:08.757Z,21.94
2023-08-09T14:00:35.525Z,22.21
2023-08-09T14:03:01.957Z,22.64
2023-08-09T14:05:28.405Z,23.11
2023-08-09T14:07:54.776Z,22.84
2023-08-09T14:10:21.143Z,22.64
2023-08-09T14:12:47.526Z,22.38
2023-08-09T14:15:13.907Z,22.30
2023-08-09T14:17:40.434Z,22.24
2023-08-09T14:20:07.453Z,22.61
2023-08-09T14:22:33.900Z,22.51
2023-08-09T14:25:00.248Z,22.20
2023-08-09T14:27:26.643Z,21.91
2023-08-09T14:29:53.917Z,21.67
2023-08-09T14:32:21.096Z,21.83
2023-08-09T14:34:47.589Z,22.17
2023-08-09T14:37:14.050Z,22.88
2023-08-09T14:39:40.623Z,23.28
2023-08-09T14:42:07.341Z,22.83
2023-08-09T14:44:33.688Z,22.75
2023-08-09T14:47:00.150Z,22.90
2023-08-09T14:49:26.574Z,23.11
2023-08-09T14:51:52.954Z,23.65
2023-08-09T14:54:32.733Z,24.00
2023-08-09T14:57:03.820Z,23.80
2023-08-09T14:59:30.424Z,23.20
2023-08-09T15:01:56.790Z,22.07
2023-08-09T15:04:23.154Z,22.03
2023-08-09T15:06:49.513Z,21.68
2023-08-09T15:09:15.881Z,21.70
2023-08-09T15:11:42.297Z,21.92
2023-08-09T15:14:08.764Z,22.05
2023-08-09T15:16:35.370Z,21.70
2023-08-09T15:19:01.792Z,21.89
2023-08-09T15:21:28.176Z,21.49
2023-08-09T15:23:54.571Z,21.31
2023-08-09T15:26:21.533Z,21.54
2023-08-09T15:28:47.985Z,21.76
2023-08-09T15:31:14.440Z,21.59
2023-08-09T15:33:40.848Z,21.74
2023-08-09T15:36:07.218Z,21.88
2023-08-09T15:38:33.601Z,22.04
2023-08-09T15:41:03.394Z,22.00
2023-08-09T15:43:29.776Z,21.74
2023-08-09T15:45:56.152Z,21.73
2023-08-09T15:48:22.606Z,21.81
2023-08-09T15:50:49.007Z,21.39
2023-08-09T15:53:15.367Z,21.31
2023-08-09T15:55:43.183Z,21.47
2023-08-09T15:58:11.003Z,21.50
2023-08-09T16:00:49.713Z,21.86
2023-08-09T16:03:21.526Z,21.52
2023-08-09T16:05:48.045Z,21.27
2023-08-09T16:08:14.408Z,21.75
2023-08-09T16:10:40.792Z,21.96
2023-08-09T16:13:07.177Z,21.99
2023-08-09T16:15:33.735Z,22.29
2023-08-09T16:18:00.287Z,22.24
2023-08-09T16:20:27.021Z,22.23
2023-08-09T16:22:53.418Z,22.51
2023-08-09T16:25:19.813Z,22.83
2023-08-09T16:27:46.603Z,22.88
2023-08-09T16:30:13.804Z,22.86
2023-08-09T16:32:41.041Z,22.97
2023-08-09T16:35:08.111Z,22.77
2023-08-09T16:37:34.481Z,22.78
2023-08-09T16:40:00.840Z,22.44
2023-08-09T16:42:27.234Z,21.88
2023-08-09T16:44:53.626Z,21.64
2023-08-09T16:47:20.035Z,21.54
2023-08-09T16:49:46.392Z,20.90
2023-08-09T16:52:12.743Z,20.88
2023-08-09T16:54:39.085Z,20.95
2023-08-09T16:57:06.076Z,20.93
2023-08-09T16:59:32.668Z,20.69
2023-08-09T17:01:59.067Z,20.52
2023-08-09T17:04:25.442Z,20.39
2023-08-09T17:06:52.537Z,20.31
2023-08-09T17:09:18.874Z,20.30
2023-08-09T17:11:45.221Z,20.70
2023-08-09T17:14:11.591Z,20.92
2023-08-09T17:16:38.007Z,20.80
2023-08-09T17:19:04.567Z,20.52
2023-08-09T17:21:30.964Z,20.64
2023-08-09T17:23:57.395Z,20.70
2023-08-09T17:26:23.753Z,20.55
2023-08-09T17:28:50.138Z,20.45
2023-08-09T17:31:16.531Z,20.37
2023-08-09T17:33:43.366Z,20.31
2023-08-09T17:36:11.936Z,19.92
2023-08-09T17:38:39.929Z,19.98
2023-08-09T17:41:06.321Z,19.85
2023-08-09T17:43:33.255Z,19.88
2023-08-09T17:45:59.754Z,19.73
2023-08-09T17:48:26.218Z,19.54
2023-08-09T17:50:52.616Z,19.26
2023-08-09T17:53:19.004Z,19.25
2023-08-09T17:55:45.418Z,19.32
2023-08-09T17:58:11.767Z,19.17
2023-08-09T18:00:38.118Z,19.03
2023-08-09T18:03:04.916Z,19.17
2023-08-09T18:05:31.305Z,19.19
2023-08-09T18:07:57.659Z,19.06
2023-08-09T18:10:24.155Z,18.94
2023-08-09T18:12:50.545Z,18.85
2023-08-09T18:15:18.064Z,18.78
2023-08-09T18:17:44.547Z,18.60
2023-08-09T18:20:11.594Z,18.38
2023-08-09T18:22:48.682Z,18.24
2023-08-09T18:25:15.094Z,18.10
2023-08-09T18:27:41.708Z,18.07
2023-08-09T18:30:08.361Z,18.14
2023-08-09T18:32:34.808Z,18.18
2023-08-09T18:35:16.136Z,18.14
2023-08-09T18:37:44.949Z,18.13
2023-08-09T18:40:11.594Z,18.11
2023-08-09T18:42:38.474Z,18.03
2023-08-09T18:45:05.741Z,17.93
2023-08-09T18:47:32.885Z,17.82
2023-08-09T18:49:59.697Z,17.73
2023-08-09T18:52:26.126Z,17.74
2023-08-09T18:54:52.536Z,17.82
2023-08-09T18:57:18.918Z,17.76
2023-08-09T18:59:45.275Z,17.51
2023-08-09T19:02:11.705Z,17.36
2023-08-09T19:04:38.796Z,17.29
2023-08-09T19:07:05.720Z,17.20
2023-08-09T19:09:32.318Z,17.13
2023-08-09T19:11:58.814Z,17.09
2023-08-09T19:14:25.163Z,17.09
2023-08-09T19:16:51.525Z,17.12
2023-08-09T19:19:17.921Z,16.88
2023-08-09T19:21:44.283Z,16.78
2023-08-09T19:24:10.722Z,16.55
2023-08-09T19:26:37.068Z,16.47
2023-08-09T19:29:03.500Z,16.25
2023-08-09T19:31:29.881Z,16.09
2023-08-09T19:33:56.302Z,16.08
2023-08-09T19:36:22.695Z,15.97
2023-08-09T19:38:49.073Z,15.79
2023-08-09T19:41:15.438Z,15.80
2023-08-09T19:43:41.800Z,15.85
2023-08-09T19:46:08.280Z,15.89
2023-08-09T19:48:34.724Z,15.87
2023-08-09T19:51:01.111Z,15.76
2023-08-09T19:53:27.585Z,15.87
2023-08-09T19:55:53.990Z,15.81
2023-08-09T19:58:20.400Z,15.92
2023-08-09T20:00:46.823Z,15.98
2023-08-09T20:03:13.449Z,16.00
2023-08-09T20:05:39.940Z,15.97
2023-08-09T20:08:07.046Z,15.88
2023-08-09T20:10:34.492Z,15.81
2023-08-09T20:13:00.853Z,15.79
2023-08-09T20:15:27.284Z,15.79
2023-08-09T20:17:53.658Z,15.67
2023-08-09T20:20:20.232Z,15.60
2023-08-09T20:22:46.596Z,15.50
2023-08-09T20:25:12.945Z,15.42
2023-08-09T20:27:39.293Z,15.37
2023-08-09T20:30:06.272Z,15.35
2023-08-09T20:32:33.324Z,15.31
2023-08-09T20:34:59.757Z,15.26
2023-08-09T20:37:26.106Z,15.31
2023-08-09T20:39:52.472Z,15.31
2023-08-09T20:42:18.807Z,15.32
2023-08-09T20:44:45.158Z,15.38
2023-08-09T20:47:11.500Z,15.35
2023-08-09T20:49:37.870Z,15.35
2023-08-09T20:52:04.523Z,15.34
2023-08-09T20:54:31.104Z,15.29
2023-08-09T20:56:57.472Z,15.28
2023-08-09T20:59:23.848Z,15.22
2023-08-09T21:01:50.224Z,15.14
2023-08-09T21:04:16.610Z,15.08
2023-08-09T21:06:42.961Z,15.01
2023-08-09T21:09:09.339Z,14.92
2023-08-09T21:11:35.691Z,14.91
2023-08-09T21:14:02.054Z,14.89
2023-08-09T21:16:28.457Z,14.87
2023-08-09T21:18:54.836Z,14.80
2023-08-09T21:21:21.287Z,14.78
2023-08-09T21:26:16.938Z,14.87
2023-08-09T21:28:47.355Z,14.74
2023-08-09T21:31:15.125Z,14.74
2023-08-09T21:33:41.498Z,14.69
2023-08-09T21:36:08.028Z,14.68
2023-08-09T21:38:34.462Z,14.77
2023-08-09T21:41:01.224Z,14.67
2023-08-09T21:43:28.402Z,14.61
2023-08-09T21:45:55.069Z,14.65
2023-08-09T21:48:22.163Z,14.57
2023-08-09T21:50:51.631Z,14.37
2023-08-09T21:53:21.427Z,14.37
2023-08-09T21:55:48.401Z,14.44
2023-08-09T21:58:15.592Z,14.40
2023-08-09T22:00:42.796Z,14.38
2023-08-09T22:03:09.646Z,14.34
2023-08-09T22:05:36.386Z,14.29
2023-08-09T22:08:02.856Z,14.12
2023-08-09T22:10:29.724Z,14.27
2023-08-09T22:12:56.089Z,14.12
2023-08-09T22:15:22.681Z,14.18
2023-08-09T22:17:49.057Z,14.23
2023-08-09T22:20:15.475Z,14.23
2023-08-09T22:22:41.868Z,14.22
2023-08-09T22:25:08.538Z,14.20
2023-08-09T22:27:35.163Z,14.14
2023-08-09T22:30:01.558Z,13.99
2023-08-09T22:32:27.963Z,13.91
2023-08-09T22:34:54.379Z,13.83
2023-08-09T22:37:20.738Z,13.71
2023-08-09T22:39:47.082Z,13.71
2023-08-09T22:42:13.919Z,13.76
2023-08-09T22:44:40.305Z,13.74
2023-08-09T22:47:06.963Z,13.66
2023-08-09T22:49:33.362Z,13.63
2023-08-09T22:52:00.401Z,13.56
2023-08-09T22:54:26.785Z,13.41
2023-08-09T22:56:53.149Z,13.25
2023-08-09T22:59:19.506Z,13.25
2023-08-09T23:01:45.868Z,13.23
2023-08-09T23:04:12.292Z,13.24
2023-08-09T23:06:40.768Z,13.20
2023-08-09T23:09:07.443Z,13.11
2023-08-09T23:11:33.821Z,13.08
2023-08-09T23:14:00.207Z,13.12
2023-08-09T23:16:26.618Z,13.02
2023-08-09T23:18:53.066Z,13.06
2023-08-09T23:21:19.427Z,13.06
2023-08-09T23:23:45.826Z,13.11
2023-08-09T23:26:12.267Z,12.98
2023-08-09T23:28:38.615Z,12.93
2023-08-09T23:31:04.990Z,12.95
2023-08-09T23:33:31.505Z,12.91
2023-08-09T23:35:57.956Z,12.89
2023-08-09T23:38:24.498Z,12.85
2023-08-09T23:40:51.003Z,12.81
2023-08-09T23:43:17.490Z,12.79
2023-08-09T23:45:44.022Z,12.81
2023-08-09T23:48:10.434Z,12.72
2023-08-09T23:50:36.906Z,12.71
2023-08-09T23:53:03.413Z,12.77
2023-08-09T23:55:29.766Z,12.65
2023-08-09T23:57:56.146Z,12.55
